Time;durP1;ratioP1;P1;durP2;ratioP2;P2;SDS_P1;SDS_P2;PMS_P1;PMS_P2;Temp;Humidity;BMP_temperature;BMP_pressure;BME280_temperature;BME280_humidity;BME280_pressure;Samples;Min_cycle;Max_cycle;Signal;HPM_P1;HPM_P2
2022/10/06 00:01:52;;;;;;;9.30;1.80;;;;;;;12.40;86.14;101991.41;4986247;28;20113;-83
2022/10/06 00:04:17;;;;;;;8.65;1.88;;;;;;;12.38;85.70;101993.25;4986266;28;20400;-84
2022/10/06 00:06:42;;;;;;;10.70;2.00;;;;;;;12.40;85.11;102015.63;4987398;28;20112;-83
2022/10/06 00:09:08;;;;;;;9.30;1.83;;;;;;;12.23;84.85;102006.41;4985162;28;20054;-83
2022/10/06 00:11:34;;;;;;;9.98;1.70;;;;;;;12.45;85.08;102036.13;4987448;28;20570;-84
2022/10/06 00:13:59;;;;;;;11.07;2.50;;;;;;;12.32;85.16;102030.94;4975559;28;20117;-84
2022/10/06 00:16:24;;;;;;;11.10;1.95;;;;;;;12.42;84.93;102057.97;4976032;28;20030;-83
2022/10/06 00:18:50;;;;;;;11.98;2.17;;;;;;;12.37;84.50;102048.84;4970388;28;20109;-84
2022/10/06 00:21:15;;;;;;;12.35;2.63;;;;;;;12.17;84.55;102029.41;4979898;28;20578;-83
2022/10/06 00:23:41;;;;;;;10.07;2.22;;;;;;;12.16;85.21;102039.00;4977784;28;20034;-85
2022/10/06 00:26:15;;;;;;;10.07;2.45;;;;;;;12.30;84.06;102055.41;4986128;28;20037;-82
2022/10/06 00:28:46;;;;;;;11.50;2.40;;;;;;;12.13;84.17;102054.78;4983105;28;20069;-83
2022/10/06 00:31:12;;;;;;;9.18;2.70;;;;;;;12.23;84.15;102068.84;4982017;28;20034;-83
2022/10/06 00:33:37;;;;;;;12.70;2.45;;;;;;;12.29;83.89;102093.59;4977154;28;20372;-83
2022/10/06 00:36:03;;;;;;;11.88;2.75;;;;;;;12.26;84.50;102098.16;4983573;28;20035;-86
2022/10/06 00:38:29;;;;;;;10.07;2.38;;;;;;;12.15;83.66;102091.91;4986038;28;20020;-84
2022/10/06 00:40:55;;;;;;;13.40;2.28;;;;;;;12.09;83.77;102081.94;4986207;28;20479;-83
2022/10/06 00:43:53;;;;;;;10.60;2.25;;;;;;;12.31;83.95;102128.13;4988552;28;20500;-84
2022/10/06 00:46:40;;;;;;;11.07;2.50;;;;;;;12.30;83.96;102120.44;4975446;28;20476;-85
2022/10/06 00:49:26;;;;;;;12.23;2.42;;;;;;;12.12;84.33;102104.31;4987621;28;20034;-84
2022/10/06 00:51:56;;;;;;;9.63;2.20;;;;;;;11.98;84.18;102092.22;4985977;28;20030;-84
2022/10/06 00:54:21;;;;;;;9.75;2.42;;;;;;;12.15;83.79;102138.75;4987734;28;20036;-85
2022/10/06 00:56:47;;;;;;;10.82;1.92;;;;;;;12.06;84.43;102123.75;4990973;28;20117;-84
2022/10/06 00:59:15;;;;;;;12.98;2.50;;;;;;;11.87;83.93;102118.09;4989270;28;20523;-84
2022/10/06 01:01:48;;;;;;;11.25;2.40;;;;;;;12.06;84.54;102144.56;4981211;28;20460;-84
2022/10/06 01:04:16;;;;;;;10.70;2.35;;;;;;;12.03;83.67;102133.53;4985598;28;20014;-82
2022/10/06 01:06:50;;;;;;;12.77;2.17;;;;;;;12.03;84.08;102149.13;4982521;28;20042;-83
2022/10/06 01:09:17;;;;;;;12.10;2.45;;;;;;;11.81;84.03;102116.75;4990379;28;20037;-83
2022/10/06 01:11:46;;;;;;;12.98;2.53;;;;;;;11.76;83.91;102120.59;4989316;28;20357;-83
2022/10/06 01:14:11;;;;;;;;;;;;;;;12.23;83.94;102162.47;4985970;28;20037;-83
2022/10/06 01:16:39;;;;;;;12.02;2.92;;;;;;;11.92;83.90;102142.88;4987687;28;19918;-83
2022/10/06 01:19:18;;;;;;;12.23;2.20;;;;;;;11.88;83.75;102145.81;5001870;28;20021;-83
2022/10/06 01:21:47;;;;;;;12.23;2.67;;;;;;;11.93;83.89;102175.75;4985718;28;20109;-83
2022/10/06 01:24:13;;;;;;;16.90;2.72;;;;;;;12.02;83.68;102200.31;4984558;28;20054;-84
2022/10/06 01:26:44;;;;;;;12.38;3.05;;;;;;;11.64;83.47;102154.25;4986182;28;20065;-84
2022/10/06 01:29:09;;;;;;;11.13;2.28;;;;;;;11.67;83.52;102161.81;4978649;28;20022;-83
2022/10/06 01:31:35;;;;;;;13.00;2.45;;;;;;;11.77;84.26;102166.44;4980167;28;20037;-85
2022/10/06 01:34:00;;;;;;;13.30;2.88;;;;;;;11.72;83.90;102178.88;4982688;28;20534;-84
2022/10/06 01:36:26;;;;;;;12.32;2.33;;;;;;;11.62;83.51;102158.69;4985860;28;20543;-84
2022/10/06 01:38:51;;;;;;;10.88;2.33;;;;;;;11.61;83.47;102159.63;4985886;28;20026;-83
2022/10/06 01:41:17;;;;;;;12.30;2.50;;;;;;;11.64;83.45;102190.63;4985714;28;20523;-84
2022/10/06 01:43:42;;;;;;;15.80;2.97;;;;;;;11.52;83.79;102180.16;4983342;28;20022;-84
2022/10/06 01:46:07;;;;;;;10.48;2.67;;;;;;;11.74;84.16;102213.41;4985850;28;20484;-82
2022/10/06 01:48:35;;;;;;;12.63;2.70;;;;;;;11.70;83.72;102226.59;4985971;28;20026;-84
2022/10/06 01:51:00;;;;;;;12.65;2.38;;;;;;;11.64;84.24;102227.00;4984264;28;20574;-83
2022/10/06 01:53:25;;;;;;;14.63;2.90;;;;;;;11.53;83.47;102198.28;4985694;28;20034;-84
2022/10/06 01:55:56;;;;;;;10.98;2.53;;;;;;;11.58;84.30;102226.53;4972180;28;20084;-84
2022/10/06 01:58:23;;;;;;;13.43;2.63;;;;;;;11.62;84.01;102223.66;4976734;28;20026;-85
2022/10/06 02:00:49;;;;;;;10.70;2.13;;;;;;;11.41;83.52;102201.63;4985155;28;20022;-83
2022/10/06 02:03:15;;;;;;;11.90;2.60;;;;;;;11.47;84.00;102214.25;4984425;28;20064;-85
2022/10/06 02:05:40;;;;;;;12.23;2.50;;;;;;;11.51;83.61;102236.50;4984291;28;20030;-85
2022/10/06 02:08:05;;;;;;;10.73;2.50;;;;;;;11.33;84.18;102214.25;4986265;28;20022;-83
2022/10/06 02:10:31;;;;;;;14.30;2.65;;;;;;;11.23;83.37;102194.97;4986773;28;20423;-83
2022/10/06 02:12:56;;;;;;;12.40;2.85;;;;;;;11.26;84.38;102207.78;4990069;28;20487;-83
2022/10/06 02:15:22;;;;;;;10.77;2.40;;;;;;;11.53;83.89;102255.44;4989520;28;20076;-83
2022/10/06 02:17:47;;;;;;;9.73;2.25;;;;;;;11.28;84.21;102231.91;4976965;28;20140;-84
2022/10/06 02:20:16;;;;;;;13.45;2.55;;;;;;;11.23;84.09;102231.34;4977979;28;20527;-84
2022/10/06 02:22:42;;;;;;;9.73;1.90;;;;;;;11.11;84.07;102238.97;4986053;28;20447;-84
2022/10/06 02:25:08;;;;;;;9.85;2.17;;;;;;;11.21;84.25;102235.81;4987574;28;20440;-84
2022/10/06 02:27:33;;;;;;;11.77;2.55;;;;;;;11.27;84.86;102280.41;4976991;28;20610;-83
2022/10/06 02:29:59;;;;;;;11.63;2.55;;;;;;;11.09;84.45;102246.03;4984783;28;20113;-83
2022/10/06 02:32:31;;;;;;;10.20;2.25;;;;;;;11.07;85.54;102247.06;4982307;28;20587;-82
2022/10/06 02:34:56;;;;;;;11.63;2.08;;;;;;;11.16;85.15;102265.47;4970886;28;20046;-83
2022/10/06 02:37:22;;;;;;;11.20;2.13;;;;;;;11.10;84.70;102268.44;4986755;28;20022;-82
2022/10/06 02:39:47;;;;;;;11.63;2.20;;;;;;;10.90;84.81;102256.69;4988217;28;20022;-82
2022/10/06 02:42:12;;;;;;;10.50;2.38;;;;;;;11.14;84.47;102285.53;4984461;28;20176;-82
2022/10/06 02:44:38;;;;;;;11.10;2.22;;;;;;;10.94;84.59;102267.72;4988058;28;20571;-83
2022/10/06 02:47:04;;;;;;;12.05;2.05;;;;;;;10.85;84.87;102247.50;4984735;28;20037;-83
2022/10/06 02:49:30;;;;;;;11.15;2.15;;;;;;;11.11;85.15;102306.47;5002363;28;20155;-82
2022/10/06 02:51:56;;;;;;;9.18;2.40;;;;;;;11.09;85.43;102303.16;4987212;28;20372;-84
2022/10/06 02:54:21;;;;;;;9.93;2.53;;;;;;;10.99;84.83;102307.22;4987360;28;20026;-85
2022/10/06 02:56:48;;;;;;;11.95;2.42;;;;;;;11.03;85.76;102313.91;4987828;28;20479;-83
2022/10/06 02:59:14;;;;;;;9.65;2.28;;;;;;;10.98;85.33;102310.75;4985847;28;20034;-84
2022/10/06 03:01:39;;;;;;;12.18;2.58;;;;;;;10.72;85.73;102288.06;4987141;28;20034;-84
2022/10/06 03:04:05;;;;;;;11.60;1.75;;;;;;;10.82;85.75;102299.59;4988484;28;20030;-84
2022/10/06 03:06:30;;;;;;;10.70;2.47;;;;;;;10.71;84.94;102304.56;4986260;28;20492;-85
2022/10/06 03:08:58;;;;;;;12.80;2.80;;;;;;;10.68;85.93;102323.75;4986722;28;20080;-84
2022/10/06 03:11:29;;;;;;;11.15;2.83;;;;;;;10.63;86.05;102321.44;4986626;28;20026;-84
2022/10/06 03:13:54;;;;;;;10.82;2.40;;;;;;;10.68;86.17;102328.13;4985958;28;20117;-84
2022/10/06 03:16:40;;;;;;;12.50;2.75;;;;;;;10.73;86.61;102336.47;4975910;28;20161;-85
2022/10/06 03:19:07;;;;;;;9.00;1.77;;;;;;;10.65;85.37;102334.31;4987106;28;20022;-83
2022/10/06 03:21:35;;;;;;;11.10;2.30;;;;;;;10.74;86.24;102346.75;4983650;28;20445;-83
2022/10/06 03:24:00;;;;;;;13.02;2.55;;;;;;;10.55;86.07;102323.66;4983456;28;20027;-84
2022/10/06 03:26:38;;;;;;;12.95;2.47;;;;;;;10.60;86.76;102337.16;5002845;28;20230;-84
2022/10/06 03:29:04;;;;;;;9.30;2.15;;;;;;;10.73;86.43;102352.88;4986596;28;20026;-84
2022/10/06 03:31:30;;;;;;;12.80;2.70;;;;;;;10.51;86.25;102331.69;4984367;28;20627;-84
2022/10/06 03:33:56;;;;;;;12.48;2.47;;;;;;;10.49;86.17;102344.72;4983247;28;20108;-83
2022/10/06 03:36:23;;;;;;;10.10;1.92;;;;;;;10.68;86.37;102372.22;4986292;28;20027;-83
2022/10/06 03:38:49;;;;;;;12.43;2.80;;;;;;;10.54;86.12;102368.66;4987174;28;20026;-83
2022/10/06 03:41:18;;;;;;;9.52;1.75;;;;;;;10.55;87.48;102369.47;4987227;28;20077;-82
2022/10/06 03:43:45;;;;;;;9.73;1.98;;;;;;;10.50;86.75;102367.16;4983983;28;20099;-84
2022/10/06 03:46:12;;;;;;;12.05;2.78;;;;;;;10.53;85.97;102361.78;4973976;28;20500;-84
2022/10/06 03:48:38;;;;;;;11.90;2.53;;;;;;;10.57;87.45;102384.06;4979390;28;20022;-85
2022/10/06 03:51:10;;;;;;;11.75;2.33;;;;;;;10.41;86.80;102383.25;4987365;28;20037;-84
2022/10/06 03:53:36;;;;;;;12.90;2.83;;;;;;;10.43;86.88;102396.94;4986928;28;20092;-83
2022/10/06 03:56:07;;;;;;;11.82;2.40;;;;;;;10.34;86.80;102371.53;4987467;28;20476;-83
2022/10/06 03:58:35;;;;;;;10.93;2.70;;;;;;;10.11;86.80;102376.22;4983581;28;20015;-84
2022/10/06 04:01:07;;;;;;;8.68;1.90;;;;;;;10.43;87.26;102416.88;4982385;28;20133;-83
2022/10/06 04:03:33;;;;;;;11.13;2.60;;;;;;;10.28;88.01;102418.56;4984354;28;20484;-84
2022/10/06 04:06:01;;;;;;;10.60;2.15;;;;;;;10.32;87.71;102420.91;4986854;28;20023;-82
2022/10/06 04:08:28;;;;;;;11.60;2.57;;;;;;;10.40;87.74;102425.66;4985582;28;20026;-84
2022/10/06 04:10:54;;;;;;;11.50;2.45;;;;;;;10.21;87.64;102412.03;4984488;28;20285;-84
2022/10/06 04:13:21;;;;;;;12.05;2.58;;;;;;;10.26;87.79;102425.56;4986224;28;20044;-83
2022/10/06 04:15:47;;;;;;;13.07;2.72;;;;;;;10.21;87.87;102430.16;4979301;28;20034;-84
2022/10/06 04:18:14;;;;;;;13.52;2.25;;;;;;;10.21;87.83;102423.22;4984952;28;20132;-84
2022/10/06 04:20:39;;;;;;;11.60;2.28;;;;;;;10.28;87.53;102439.31;4984358;28;20103;-85
2022/10/06 04:23:05;;;;;;;12.68;2.55;;;;;;;10.26;88.29;102451.50;4985061;28;20112;-84
2022/10/06 04:25:32;;;;;;;11.15;2.20;;;;;;;10.13;87.64;102429.72;4986835;28;20497;-84
2022/10/06 04:27:58;;;;;;;11.20;1.83;;;;;;;10.27;87.72;102460.97;4985288;28;20076;-83
2022/10/06 04:30:25;;;;;;;8.25;2.45;;;;;;;9.99;87.97;102428.72;4981688;28;20030;-84
2022/10/06 04:32:51;;;;;;;12.40;2.83;;;;;;;9.95;88.28;102421.19;4999070;28;20057;-85
2022/10/06 04:35:17;;;;;;;12.48;2.03;;;;;;;10.18;87.99;102466.63;4985758;28;20022;-84
2022/10/06 04:37:42;;;;;;;11.18;2.05;;;;;;;10.10;87.59;102444.53;4986481;28;20491;-83
2022/10/06 04:40:08;;;;;;;10.60;2.00;;;;;;;9.82;88.18;102419.25;4983702;28;20026;-85
2022/10/06 04:42:34;;;;;;;10.98;2.45;;;;;;;10.01;87.95;102457.16;4987733;28;20555;-84
2022/10/06 04:44:59;;;;;;;7.53;2.40;;;;;;;10.07;88.35;102462.84;4984547;28;20404;-83
2022/10/06 04:47:24;;;;;;;11.13;1.95;;;;;;;10.15;87.91;102475.41;4987478;28;20034;-84
2022/10/06 04:49:50;;;;;;;9.77;2.45;;;;;;;9.95;88.59;102462.66;4975015;28;20574;-83
2022/10/06 04:52:15;;;;;;;12.57;2.78;;;;;;;9.79;88.28;102449.66;4986664;28;20049;-85
2022/10/06 04:54:40;;;;;;;8.88;2.05;;;;;;;10.07;88.21;102488.75;4983265;28;20587;-85
2022/10/06 04:57:06;;;;;;;13.30;2.90;;;;;;;9.83;88.95;102458.97;4985872;28;20022;-84
2022/10/06 05:02:15;;;;;;;13.63;2.72;;;;;;;9.99;88.98;102483.16;4981112;28;20049;-84
2022/10/06 05:04:41;;;;;;;15.75;2.80;;;;;;;9.99;88.32;102501.31;4982572;28;20030;-84
2022/10/06 05:07:06;;;;;;;10.27;2.20;;;;;;;10.02;88.49;102503.72;4985389;28;20251;-84
2022/10/06 05:09:31;;;;;;;14.02;2.25;;;;;;;9.97;88.39;102503.13;4985596;28;20022;-84
2022/10/06 05:11:57;;;;;;;11.40;2.63;;;;;;;9.92;88.65;102499.97;4975633;28;20785;-84
2022/10/06 05:14:23;;;;;;;14.45;3.22;;;;;;;9.76;89.08;102493.88;4981902;28;20122;-84
2022/10/06 05:16:48;;;;;;;13.98;2.17;;;;;;;9.87;88.35;102507.13;4986877;28;20026;-84
2022/10/06 05:19:14;;;;;;;12.05;2.22;;;;;;;9.84;89.04;102512.44;4984621;28;20030;-84
2022/10/06 05:21:39;;;;;;;11.93;1.83;;;;;;;9.95;88.06;102527.47;4984234;28;20131;-84
2022/10/06 05:24:05;;;;;;;11.00;2.45;;;;;;;9.85;88.28;102535.69;4983864;28;20030;-84
2022/10/06 05:26:33;;;;;;;15.23;3.63;;;;;;;9.84;88.42;102538.38;4982141;28;20046;-84
2022/10/06 05:28:58;;;;;;;13.43;2.80;;;;;;;9.56;88.47;102508.66;4984059;28;20035;-83
2022/10/06 05:31:26;;;;;;;9.07;1.85;;;;;;;9.71;88.91;102526.97;4985458;28;20365;-84
2022/10/06 05:33:52;;;;;;;8.95;1.73;;;;;;;9.75;88.61;102536.25;4982795;28;20041;-84
2022/10/06 05:36:24;;;;;;;14.40;3.05;;;;;;;9.78;88.92;102554.22;4983756;28;20049;-84
2022/10/06 05:38:49;;;;;;;10.77;2.05;;;;;;;9.80;88.49;102553.22;4984792;28;20461;-84
2022/10/06 05:41:19;;;;;;;10.65;2.13;;;;;;;9.71;88.48;102555.47;4983804;28;20030;-85
2022/10/06 05:43:46;;;;;;;12.10;2.30;;;;;;;9.78;88.20;102574.97;4984002;28;20425;-84
2022/10/06 05:46:20;;;;;;;13.60;2.95;;;;;;;9.60;89.03;102555.16;4981899;28;20029;-84
2022/10/06 05:48:46;;;;;;;9.18;2.70;;;;;;;9.62;88.50;102571.44;4985976;28;20030;-84
2022/10/06 05:51:12;;;;;;;14.10;2.55;;;;;;;9.56;89.22;102560.47;4980953;28;20066;-85
2022/10/06 05:53:37;;;;;;;11.55;2.38;;;;;;;9.64;88.96;102587.78;4985529;28;20121;-84
2022/10/06 05:56:05;;;;;;;8.13;2.45;;;;;;;9.66;88.89;102586.78;4985851;28;20441;-84
2022/10/06 05:58:31;;;;;;;12.55;3.00;;;;;;;9.51;89.16;102579.75;4983921;28;20030;-84
2022/10/06 06:01:05;;;;;;;11.38;2.88;;;;;;;9.53;89.78;102586.56;4979380;28;20018;-84
2022/10/06 06:03:30;;;;;;;10.00;2.67;;;;;;;9.56;88.68;102585.53;4983964;28;20026;-83
2022/10/06 06:05:56;;;;;;;10.77;2.22;;;;;;;9.38;88.53;102566.56;4984834;28;20383;-83
2022/10/06 06:08:21;;;;;;;11.18;2.80;;;;;;;9.54;88.96;102603.75;4994508;28;20363;-84
2022/10/06 06:10:47;;;;;;;13.80;2.40;;;;;;;9.50;89.26;102591.88;4981779;28;20036;-84
2022/10/06 06:13:19;;;;;;;11.20;2.50;;;;;;;9.47;88.75;102584.25;4969784;28;20030;-84
2022/10/06 06:15:59;;;;;;;13.75;3.13;;;;;;;9.52;89.15;102610.78;4980638;28;20027;-84
2022/10/06 06:18:28;;;;;;;11.60;2.28;;;;;;;9.62;89.53;102626.69;4985821;28;20472;-84
2022/10/06 06:21:00;;;;;;;9.90;2.42;;;;;;;9.50;89.23;102612.59;4976876;28;20030;-84
2022/10/06 06:23:37;;;;;;;12.38;2.58;;;;;;;9.45;88.95;102601.59;4983576;28;20030;-84
2022/10/06 06:26:08;;;;;;;12.15;2.90;;;;;;;9.52;89.16;102610.78;4981762;28;20034;-84
2022/10/06 06:28:35;;;;;;;12.63;2.72;;;;;;;9.57;89.57;102629.50;4983988;28;20030;-84
2022/10/06 06:31:13;;;;;;;15.65;3.65;;;;;;;9.50;89.42;102622.09;4972303;28;20046;-84
2022/10/06 06:33:40;;;;;;;11.52;2.47;;;;;;;9.45;89.81;102613.72;4973970;28;20044;-85
2022/10/06 06:36:20;;;;;;;14.82;3.10;;;;;;;9.64;90.21;102644.78;4985091;28;20034;-85
2022/10/06 06:38:50;;;;;;;12.57;3.40;;;;;;;9.48;90.45;102635.16;4979595;28;20472;-84
2022/10/06 06:41:28;;;;;;;14.18;3.50;;;;;;;9.43;90.17;102611.22;4983360;28;20033;-84
2022/10/06 06:43:54;;;;;;;11.98;2.85;;;;;;;9.68;90.00;102651.47;4985107;28;20030;-85
2022/10/06 06:46:32;;;;;;;13.32;3.15;;;;;;;9.67;89.83;102649.78;4979235;28;20121;-85
2022/10/06 06:49:02;;;;;;;13.93;2.90;;;;;;;9.56;90.02;102627.81;4995469;28;20030;-85
2022/10/06 06:51:29;;;;;;;17.30;3.83;;;;;;;9.55;90.12;102631.34;4975680;28;20173;-85
2022/10/06 06:53:58;;;;;;;11.63;3.00;;;;;;;9.52;90.34;102621.16;4981564;28;20041;-83
2022/10/06 06:56:23;;;;;;;17.08;3.05;;;;;;;9.82;89.98;102659.41;4986513;28;20030;-84
2022/10/06 06:58:49;;;;;;;12.82;3.28;;;;;;;9.79;90.63;102659.56;4988691;28;20038;-84
2022/10/06 07:01:17;;;;;;;12.85;3.25;;;;;;;9.70;90.68;102644.47;4982969;28;20035;-85
2022/10/06 07:03:44;;;;;;;15.88;3.28;;;;;;;9.81;90.39;102673.28;4988994;28;20026;-85
2022/10/06 07:06:12;;;;;;;14.68;3.92;;;;;;;9.80;90.46;102672.44;4986074;28;20156;-84
2022/10/06 07:08:43;;;;;;;16.77;3.93;;;;;;;9.81;90.85;102673.28;4978486;28;20468;-85
2022/10/06 07:11:18;;;;;;;14.43;3.17;;;;;;;9.98;90.42;102691.44;4986776;28;20085;-84
2022/10/06 07:13:45;;;;;;;13.60;3.15;;;;;;;10.01;90.84;102691.28;4979743;28;20117;-84
2022/10/06 07:27:09;;;;;;;17.00;4.43;;;;;;;10.21;90.84;102713.66;4983944;28;20079;-84
2022/10/06 07:29:35;;;;;;;14.85;4.15;;;;;;;10.23;90.52;102718.75;4983008;28;20034;-84
2022/10/06 07:32:00;;;;;;;12.80;3.42;;;;;;;10.25;90.29;102714.34;4983403;28;20100;-85
2022/10/06 07:34:26;;;;;;;16.45;4.28;;;;;;;10.30;90.00;102727.94;4979936;28;20536;-84
2022/10/06 07:36:53;;;;;;;13.93;3.25;;;;;;;10.41;90.31;102730.81;4979373;28;20062;-85
2022/10/06 07:39:19;;;;;;;14.55;3.65;;;;;;;10.40;90.52;102723.13;4979892;28;20030;-83
2022/10/06 07:41:44;;;;;;;17.60;3.95;;;;;;;10.48;89.63;102737.38;4985413;28;20054;-85
2022/10/06 07:44:12;;;;;;;14.73;3.35;;;;;;;10.61;89.69;102753.19;4984264;28;20034;-84
2022/10/06 07:46:37;;;;;;;15.25;3.92;;;;;;;10.59;90.05;102750.63;4987424;28;20022;-85
2022/10/06 07:49:03;;;;;;;16.13;4.18;;;;;;;10.69;89.86;102760.56;4986346;28;20033;-85
2022/10/06 07:51:28;;;;;;;18.10;3.90;;;;;;;10.68;89.79;102748.50;4973120;28;20030;-84
2022/10/06 07:53:54;;;;;;;14.18;3.60;;;;;;;10.61;89.95;102733.25;4973719;28;20500;-85
2022/10/06 07:56:20;;;;;;;14.75;3.97;;;;;;;10.85;88.09;102766.66;4982701;28;20464;-85
2022/10/06 07:58:50;;;;;;;13.88;3.33;;;;;;;10.84;88.74;102764.97;4982382;28;20026;-85
2022/10/06 08:01:20;;;;;;;14.05;3.65;;;;;;;10.75;88.28;102729.09;4984943;28;20049;-85
2022/10/06 08:03:47;;;;;;;15.07;3.60;;;;;;;10.80;87.94;102732.31;4987670;28;20137;-85
2022/10/06 08:06:17;;;;;;;14.25;3.28;;;;;;;10.94;87.95;102737.59;4984022;28;20022;-85
2022/10/06 08:08:46;;;;;;;15.70;4.05;;;;;;;10.91;87.26;102724.78;4986370;28;20022;-85
2022/10/06 08:11:12;;;;;;;9.70;3.17;;;;;;;11.33;87.78;102777.97;4985387;28;20121;-85
2022/10/06 08:13:43;;;;;;;16.60;3.97;;;;;;;11.02;87.39;102727.66;4985454;28;20065;-85
2022/10/06 08:16:14;;;;;;;14.25;3.83;;;;;;;11.35;87.29;102770.91;4985744;28;20084;-85
2022/10/06 08:18:40;;;;;;;17.33;3.63;;;;;;;11.34;87.21;102754.50;4985422;28;20026;-85
2022/10/06 08:28:09;;;;;;;;;;;;;;;;;;;;;
2022/10/06 08:37:22;;;;;;;12.10;3.03;;;;;;;12.05;84.80;102793.09;5047788;28;20064;-79
2022/10/06 08:39:51;;;;;;;13.13;3.80;;;;;;;11.99;82.98;102787.38;5030015;28;20029;-80
2022/10/06 08:42:28;;;;;;;13.38;3.47;;;;;;;12.17;83.50;102802.78;5029159;28;20021;-79
2022/10/06 08:44:59;;;;;;;14.25;3.28;;;;;;;12.15;83.66;102799.41;5042268;28;20525;-79
2022/10/06 08:47:27;;;;;;;10.90;3.45;;;;;;;12.34;83.23;102814.00;5037636;28;20032;-80
2022/10/06 08:49:53;;;;;;;;;;;;;;;12.45;83.96;102822.03;5051947;28;20033;-80
2022/10/06 08:52:37;;;;;;;15.02;3.20;;;;;;;12.40;82.38;102819.69;5043087;28;20413;-80
2022/10/06 08:55:06;;;;;;;12.90;3.55;;;;;;;12.42;82.47;102811.78;5038440;28;20025;-79
2022/10/06 08:58:14;;;;;;;13.82;3.50;;;;;;;12.35;83.19;102784.44;5059572;28;20404;-79
2022/10/06 09:00:39;;;;;;;12.80;3.38;;;;;;;12.68;81.38;102833.72;5018215;28;20033;-80
2022/10/06 09:03:06;;;;;;;12.23;3.05;;;;;;;12.54;80.91;102798.06;5032326;28;20159;-79
2022/10/06 09:05:33;;;;;;;11.38;2.90;;;;;;;12.80;80.72;102822.56;5046421;28;20466;-79
2022/10/06 09:08:07;;;;;;;15.13;3.45;;;;;;;12.96;80.55;102849.38;5055433;28;20029;-80
2022/10/06 09:10:48;;;;;;;10.85;2.88;;;;;;;13.05;79.42;102852.38;5032597;28;20075;-79
2022/10/06 09:13:37;;;;;;;13.70;3.22;;;;;;;13.01;78.42;102841.28;5017719;28;20091;-81
2022/10/06 09:16:09;;;;;;;10.80;2.80;;;;;;;13.08;78.71;102853.03;5046408;28;20362;-80
2022/10/06 09:18:51;;;;;;;14.13;3.13;;;;;;;13.18;78.80;102851.53;5048668;28;20112;-79
2022/10/06 09:21:22;;;;;;;12.13;2.60;;;;;;;13.14;77.61;102837.03;5045981;28;20021;-79
2022/10/06 09:23:55;;;;;;;10.60;2.60;;;;;;;13.34;75.68;102874.09;5034648;28;20057;-79
2022/10/06 09:26:27;;;;;;;13.13;2.75;;;;;;;13.36;76.10;102861.78;5041312;28;20036;-80
2022/10/06 09:28:54;;;;;;;10.57;2.25;;;;;;;13.51;76.57;102871.28;5052648;28;20066;-80
2022/10/06 09:31:26;;;;;;;12.45;2.72;;;;;;;13.53;75.32;102879.84;5032850;28;20373;-80
2022/10/06 09:34:08;;;;;;;11.43;2.42;;;;;;;13.63;75.25;102880.13;5031620;28;20120;-79
2022/10/06 09:37:06;;;;;;;10.00;2.50;;;;;;;13.76;75.99;102881.91;5027941;28;20067;-80
2022/10/06 09:39:35;;;;;;;9.43;2.10;;;;;;;13.75;73.76;102880.19;5040400;28;20140;-79
2022/10/06 09:42:13;;;;;;;9.65;2.28;;;;;;;13.92;75.26;102880.91;5036562;28;20066;-79
2022/10/06 09:44:57;;;;;;;9.90;2.10;;;;;;;13.97;74.19;102881.47;5034070;28;20395;-79
2022/10/06 09:47:31;;;;;;;10.40;2.28;;;;;;;14.05;73.89;102881.84;5030319;28;20033;-80
2022/10/06 09:50:15;;;;;;;12.43;2.22;;;;;;;14.06;73.40;102894.78;5043374;28;20032;-79
2022/10/06 09:53:02;;;;;;;10.32;2.38;;;;;;;14.12;73.05;102888.34;5032447;28;20037;-79
2022/10/06 09:55:33;;;;;;;11.85;2.33;;;;;;;14.11;72.04;102886.66;5015415;28;20033;-80
2022/10/06 09:57:59;;;;;;;10.70;2.63;;;;;;;14.22;73.94;102879.00;5034902;28;20036;-80
2022/10/06 10:00:28;;;;;;;9.48;2.40;;;;;;;14.25;71.85;102897.03;5047050;28;20713;-80
2022/10/06 10:03:03;;;;;;;10.63;2.35;;;;;;;14.32;72.82;102895.72;5031231;28;20075;-79
2022/10/06 10:05:31;;;;;;;11.32;2.40;;;;;;;14.31;72.05;102882.75;5041340;28;20039;-80
2022/10/06 10:08:20;;;;;;;10.95;2.65;;;;;;;14.49;72.97;102896.44;5049459;28;20531;-79
2022/10/06 10:10:46;;;;;;;10.90;2.60;;;;;;;14.29;69.82;102888.09;5039177;28;20040;-80
2022/10/06 10:13:25;;;;;;;10.52;2.20;;;;;;;14.44;71.66;102883.63;5043603;28;20025;-80
2022/10/06 10:16:01;;;;;;;8.88;2.20;;;;;;;14.50;69.79;102888.47;5043685;28;20037;-81
2022/10/06 10:18:29;;;;;;;10.00;2.22;;;;;;;14.41;68.70;102888.25;5039276;28;20033;-80
2022/10/06 10:20:58;;;;;;;10.40;2.83;;;;;;;14.52;70.67;102891.03;5032757;28;20104;-79
2022/10/06 10:23:28;;;;;;;11.07;2.50;;;;;;;14.63;70.52;102892.94;5045666;28;20032;-80
2022/10/06 10:26:21;;;;;;;9.35;2.20;;;;;;;14.70;70.67;102904.66;5043960;28;20033;-79
2022/10/06 10:28:50;;;;;;;9.27;2.67;;;;;;;14.72;70.99;102914.03;5025998;28;20026;-79
2022/10/06 10:31:43;;;;;;;11.43;2.70;;;;;;;14.71;69.97;102907.16;5027463;28;20439;-80
2022/10/06 10:34:26;;;;;;;11.30;2.67;;;;;;;14.66;68.40;102911.84;5034076;28;20036;-80
2022/10/06 10:36:58;;;;;;;8.43;2.17;;;;;;;14.49;69.26;102888.59;5054210;28;20487;-79
2022/10/06 10:39:38;;;;;;;11.48;2.22;;;;;;;14.63;68.97;102912.06;5049307;28;20033;-79
2022/10/06 10:42:12;;;;;;;9.68;2.25;;;;;;;14.61;69.23;102890.41;5045888;28;20017;-79
2022/10/06 10:44:47;;;;;;;10.45;2.50;;;;;;;14.55;69.12;102890.81;5063369;28;20028;-79
2022/10/06 10:47:20;;;;;;;11.32;2.20;;;;;;;14.64;68.73;102905.03;5034053;28;20277;-79
2022/10/06 10:50:05;;;;;;;10.32;2.33;;;;;;;14.64;68.06;102895.44;5055256;28;20059;-79
2022/10/06 10:52:40;;;;;;;9.82;2.60;;;;;;;14.73;67.62;102910.47;5034304;28;20342;-79
2022/10/06 10:55:29;;;;;;;9.32;2.00;;;;;;;14.88;68.59;102914.69;5048254;28;20497;-79
2022/10/06 10:58:02;;;;;;;11.25;2.38;;;;;;;14.82;67.43;102909.06;5052619;28;20111;-80
2022/10/06 11:00:34;;;;;;;11.25;2.55;;;;;;;14.87;67.19;102907.81;5043185;28;20017;-80
2022/10/06 11:03:00;;;;;;;8.18;1.85;;;;;;;14.78;66.00;102902.34;5047415;28;20033;-79
2022/10/06 11:05:45;;;;;;;8.98;1.90;;;;;;;15.02;67.41;102932.06;5039798;28;20481;-80
2022/10/06 11:08:48;;;;;;;12.45;2.42;;;;;;;15.07;67.32;102921.31;5034930;28;20028;-80
2022/10/06 11:11:59;;;;;;;11.70;2.60;;;;;;;15.16;67.71;102918.09;5046228;28;20039;-80
2022/10/06 11:14:42;;;;;;;9.68;2.33;;;;;;;15.37;68.10;102916.63;5032314;28;20049;-79
2022/10/06 11:17:21;;;;;;;10.07;2.20;;;;;;;15.69;67.93;102920.59;5050824;28;20048;-79
2022/10/06 11:19:59;;;;;;;11.27;2.50;;;;;;;15.70;66.67;102930.94;5054480;28;20185;-80
2022/10/06 11:23:12;;;;;;;8.40;2.03;;;;;;;15.72;66.48;102926.44;5050660;28;20032;-79
2022/10/06 11:25:52;;;;;;;8.65;2.20;;;;;;;15.65;65.48;102914.72;4952372;28;20039;-80
2022/10/06 11:28:25;;;;;;;8.80;1.98;;;;;;;15.51;64.79;102922.69;4947885;28;20047;-79
2022/10/06 11:31:02;;;;;;;10.05;2.00;;;;;;;15.65;65.26;102923.44;4954202;28;20105;-80
2022/10/06 11:33:57;;;;;;;10.07;2.38;;;;;;;15.73;65.77;102924.66;4947174;28;20130;-79
2022/10/06 11:37:01;;;;;;;8.98;2.00;;;;;;;15.57;64.88;102927.47;4951884;28;20279;-80
2022/10/06 11:39:33;;;;;;;9.82;1.75;;;;;;;15.48;63.97;102923.69;4939479;29;20375;-79
2022/10/06 11:42:19;;;;;;;10.70;2.15;;;;;;;15.57;64.35;102923.09;4951046;28;20031;-80
2022/10/06 11:44:58;;;;;;;7.85;2.05;;;;;;;15.54;63.56;102906.75;4933131;29;20043;-79
2022/10/06 11:47:37;;;;;;;10.48;2.10;;;;;;;15.67;63.39;102923.31;4946789;28;20074;-80
2022/10/06 11:50:35;;;;;;;9.60;1.90;;;;;;;15.77;64.34;102923.50;4946743;28;20027;-79
2022/10/06 11:53:01;;;;;;;8.73;2.00;;;;;;;15.65;62.94;102912.09;4947263;28;20106;-79
2022/10/06 11:55:27;;;;;;;8.60;2.22;;;;;;;15.70;61.54;102922.25;4952911;28;20119;-81
2022/10/06 11:58:15;;;;;;;10.57;1.88;;;;;;;15.86;62.84;102918.47;4947442;28;20121;-79
2022/10/06 12:00:44;;;;;;;8.98;1.90;;;;;;;15.93;61.37;102903.97;5052594;28;20063;-80
2022/10/06 12:03:28;;;;;;;6.93;1.67;;;;;;;15.97;61.52;102909.00;5052553;28;20471;-79
2022/10/06 12:05:53;;;;;;;8.80;2.22;;;;;;;15.90;59.22;102917.31;5059228;28;20055;-80